sensor_id;sensor_type;location;lat;lon;timestamp;P1;durP1;ratioP1;P2;durP2;ratioP2
47531;SDS011;33273;52.254;7.988;2023-03-31T00:01:33;6.05;;;3.30;;
47531;SDS011;33273;52.254;7.988;2023-03-31T00:04:00;7.65;;;3.03;;
47531;SDS011;33273;52.254;7.988;2023-03-31T00:06:32;9.52;;;3.53;;
47531;SDS011;33273;52.254;7.988;2023-03-31T00:09:09;10.85;;;3.60;;
47531;SDS011;33273;52.254;7.988;2023-03-31T00:11:38;7.55;;;3.00;;
47531;SDS011;33273;52.254;7.988;2023-03-31T00:16:35;8.38;;;3.00;;
47531;SDS011;33273;52.254;7.988;2023-03-31T00:19:03;6.65;;;3.10;;
47531;SDS011;33273;52.254;7.988;2023-03-31T00:21:30;7.75;;;3.67;;
47531;SDS011;33273;52.254;7.988;2023-03-31T00:24:02;8.98;;;3.20;;
47531;SDS011;33273;52.254;7.988;2023-03-31T00:26:29;6.03;;;3.20;;
47531;SDS011;33273;52.254;7.988;2023-03-31T00:28:56;7.25;;;3.15;;
47531;SDS011;33273;52.254;7.988;2023-03-31T00:33:48;8.57;;;3.22;;
47531;SDS011;33273;52.254;7.988;2023-03-31T00:36:14;9.43;;;4.03;;
47531;SDS011;33273;52.254;7.988;2023-03-31T00:38:55;10.15;;;3.72;;
47531;SDS011;33273;52.254;7.988;2023-03-31T00:41:34;6.97;;;3.58;;
47531;SDS011;33273;52.254;7.988;2023-03-31T00:44:12;10.13;;;3.42;;
47531;SDS011;33273;52.254;7.988;2023-03-31T00:51:50;12.02;;;4.85;;
47531;SDS011;33273;52.254;7.988;2023-03-31T00:54:18;8.57;;;4.30;;
47531;SDS011;33273;52.254;7.988;2023-03-31T00:56:49;8.23;;;4.25;;
47531;SDS011;33273;52.254;7.988;2023-03-31T00:59:17;10.10;;;3.78;;
47531;SDS011;33273;52.254;7.988;2023-03-31T01:01:45;8.02;;;4.05;;
47531;SDS011;33273;52.254;7.988;2023-03-31T01:04:15;7.82;;;3.83;;
47531;SDS011;33273;52.254;7.988;2023-03-31T01:06:53;10.93;;;4.45;;
47531;SDS011;33273;52.254;7.988;2023-03-31T01:09:30;7.78;;;4.25;;
47531;SDS011;33273;52.254;7.988;2023-03-31T01:12:05;8.77;;;3.55;;
47531;SDS011;33273;52.254;7.988;2023-03-31T01:14:33;9.50;;;3.00;;
47531;SDS011;33273;52.254;7.988;2023-03-31T01:16:59;10.35;;;3.35;;
47531;SDS011;33273;52.254;7.988;2023-03-31T01:22:25;9.30;;;3.67;;
47531;SDS011;33273;52.254;7.988;2023-03-31T01:28:03;10.93;;;3.83;;
47531;SDS011;33273;52.254;7.988;2023-03-31T01:30:49;8.10;;;2.83;;
47531;SDS011;33273;52.254;7.988;2023-03-31T01:42:14;5.60;;;2.83;;
47531;SDS011;33273;52.254;7.988;2023-03-31T01:48:01;9.55;;;3.55;;
47531;SDS011;33273;52.254;7.988;2023-03-31T01:50:42;6.40;;;3.00;;
47531;SDS011;33273;52.254;7.988;2023-03-31T01:53:21;9.77;;;3.10;;
47531;SDS011;33273;52.254;7.988;2023-03-31T01:56:12;8.27;;;3.00;;
47531;SDS011;33273;52.254;7.988;2023-03-31T01:59:01;10.45;;;3.20;;
47531;SDS011;33273;52.254;7.988;2023-03-31T02:06:54;5.65;;;2.80;;
47531;SDS011;33273;52.254;7.988;2023-03-31T02:09:27;5.65;;;2.80;;
47531;SDS011;33273;52.254;7.988;2023-03-31T02:11:58;6.25;;;3.00;;
47531;SDS011;33273;52.254;7.988;2023-03-31T02:14:27;7.93;;;2.67;;
47531;SDS011;33273;52.254;7.988;2023-03-31T02:16:56;7.35;;;2.50;;
47531;SDS011;33273;52.254;7.988;2023-03-31T02:19:28;7.00;;;2.85;;
47531;SDS011;33273;52.254;7.988;2023-03-31T02:21:57;12.10;;;3.83;;
47531;SDS011;33273;52.254;7.988;2023-03-31T02:24:25;7.85;;;2.75;;
47531;SDS011;33273;52.254;7.988;2023-03-31T02:26:55;7.60;;;2.88;;
47531;SDS011;33273;52.254;7.988;2023-03-31T02:29:25;6.70;;;2.47;;
47531;SDS011;33273;52.254;7.988;2023-03-31T02:34:37;6.15;;;2.42;;
47531;SDS011;33273;52.254;7.988;2023-03-31T02:37:02;6.22;;;2.10;;
47531;SDS011;33273;52.254;7.988;2023-03-31T02:39:30;5.38;;;2.28;;
47531;SDS011;33273;52.254;7.988;2023-03-31T02:41:59;9.30;;;2.67;;
47531;SDS011;33273;52.254;7.988;2023-03-31T02:44:35;7.88;;;2.42;;
47531;SDS011;33273;52.254;7.988;2023-03-31T02:47:05;5.88;;;2.63;;
47531;SDS011;33273;52.254;7.988;2023-03-31T02:49:33;8.65;;;2.85;;
47531;SDS011;33273;52.254;7.988;2023-03-31T03:00:12;7.88;;;2.70;;
47531;SDS011;33273;52.254;7.988;2023-03-31T03:11:24;9.88;;;2.72;;
47531;SDS011;33273;52.254;7.988;2023-03-31T03:13:54;5.78;;;2.35;;
47531;SDS011;33273;52.254;7.988;2023-03-31T03:16:45;5.78;;;2.40;;
47531;SDS011;33273;52.254;7.988;2023-03-31T03:19:18;10.43;;;2.30;;
47531;SDS011;33273;52.254;7.988;2023-03-31T03:21:46;10.25;;;2.22;;
47531;SDS011;33273;52.254;7.988;2023-03-31T03:24:16;5.28;;;2.15;;
47531;SDS011;33273;52.254;7.988;2023-03-31T03:26:43;7.20;;;2.20;;
47531;SDS011;33273;52.254;7.988;2023-03-31T03:29:10;5.30;;;2.40;;
47531;SDS011;33273;52.254;7.988;2023-03-31T03:31:39;9.85;;;2.92;;
47531;SDS011;33273;52.254;7.988;2023-03-31T03:34:06;6.43;;;2.50;;
47531;SDS011;33273;52.254;7.988;2023-03-31T03:36:34;7.40;;;3.15;;
47531;SDS011;33273;52.254;7.988;2023-03-31T03:39:02;6.50;;;2.83;;
47531;SDS011;33273;52.254;7.988;2023-03-31T03:41:28;7.53;;;3.03;;
47531;SDS011;33273;52.254;7.988;2023-03-31T03:43:55;7.05;;;3.30;;
47531;SDS011;33273;52.254;7.988;2023-03-31T03:46:21;7.43;;;3.92;;
47531;SDS011;33273;52.254;7.988;2023-03-31T03:48:47;7.07;;;3.57;;
47531;SDS011;33273;52.254;7.988;2023-03-31T03:51:13;9.37;;;4.50;;
47531;SDS011;33273;52.254;7.988;2023-03-31T03:53:41;7.03;;;4.53;;
47531;SDS011;33273;52.254;7.988;2023-03-31T03:56:07;9.77;;;5.13;;
47531;SDS011;33273;52.254;7.988;2023-03-31T03:58:34;9.07;;;4.35;;
47531;SDS011;33273;52.254;7.988;2023-03-31T04:01:00;10.55;;;5.07;;
47531;SDS011;33273;52.254;7.988;2023-03-31T04:03:26;11.18;;;5.72;;
47531;SDS011;33273;52.254;7.988;2023-03-31T04:05:52;10.63;;;5.70;;
47531;SDS011;33273;52.254;7.988;2023-03-31T04:08:19;9.93;;;4.93;;
47531;SDS011;33273;52.254;7.988;2023-03-31T04:10:46;10.73;;;5.22;;
47531;SDS011;33273;52.254;7.988;2023-03-31T04:13:17;9.88;;;4.75;;
47531;SDS011;33273;52.254;7.988;2023-03-31T04:15:43;13.05;;;5.10;;
47531;SDS011;33273;52.254;7.988;2023-03-31T04:18:09;13.77;;;4.95;;
47531;SDS011;33273;52.254;7.988;2023-03-31T04:20:43;7.35;;;4.55;;
47531;SDS011;33273;52.254;7.988;2023-03-31T04:23:09;8.30;;;5.30;;
47531;SDS011;33273;52.254;7.988;2023-03-31T04:25:39;11.32;;;5.40;;
47531;SDS011;33273;52.254;7.988;2023-03-31T04:28:10;13.48;;;5.68;;
47531;SDS011;33273;52.254;7.988;2023-03-31T04:30:38;8.75;;;4.90;;
47531;SDS011;33273;52.254;7.988;2023-03-31T04:33:05;12.93;;;6.75;;
47531;SDS011;33273;52.254;7.988;2023-03-31T04:35:31;12.35;;;6.30;;
47531;SDS011;33273;52.254;7.988;2023-03-31T04:38:20;9.93;;;5.60;;
47531;SDS011;33273;52.254;7.988;2023-03-31T04:40:48;8.23;;;5.75;;
47531;SDS011;33273;52.254;7.988;2023-03-31T04:43:15;12.10;;;6.90;;
47531;SDS011;33273;52.254;7.988;2023-03-31T04:45:42;11.38;;;7.80;;
47531;SDS011;33273;52.254;7.988;2023-03-31T04:48:09;11.80;;;7.55;;
47531;SDS011;33273;52.254;7.988;2023-03-31T04:50:35;15.80;;;7.68;;
47531;SDS011;33273;52.254;7.988;2023-03-31T04:53:02;10.10;;;6.65;;
47531;SDS011;33273;52.254;7.988;2023-03-31T04:55:30;15.57;;;7.40;;
47531;SDS011;33273;52.254;7.988;2023-03-31T04:57:57;14.05;;;6.95;;
47531;SDS011;33273;52.254;7.988;2023-03-31T05:00:23;12.10;;;7.28;;
47531;SDS011;33273;52.254;7.988;2023-03-31T05:05:16;16.38;;;7.38;;
47531;SDS011;33273;52.254;7.988;2023-03-31T05:07:42;12.10;;;7.07;;
47531;SDS011;33273;52.254;7.988;2023-03-31T05:10:08;11.23;;;7.47;;
47531;SDS011;33273;52.254;7.988;2023-03-31T05:12:35;9.05;;;6.47;;
47531;SDS011;33273;52.254;7.988;2023-03-31T05:15:02;14.32;;;7.22;;
47531;SDS011;33273;52.254;7.988;2023-03-31T05:17:32;15.10;;;7.35;;
47531;SDS011;33273;52.254;7.988;2023-03-31T05:20:01;13.27;;;6.75;;
47531;SDS011;33273;52.254;7.988;2023-03-31T05:22:38;10.57;;;6.60;;
47531;SDS011;33273;52.254;7.988;2023-03-31T05:25:06;12.07;;;6.53;;
47531;SDS011;33273;52.254;7.988;2023-03-31T05:27:35;12.77;;;5.68;;
47531;SDS011;33273;52.254;7.988;2023-03-31T05:30:02;11.38;;;5.90;;
47531;SDS011;33273;52.254;7.988;2023-03-31T05:32:30;16.60;;;5.90;;
47531;SDS011;33273;52.254;7.988;2023-03-31T05:34:57;8.87;;;5.13;;
47531;SDS011;33273;52.254;7.988;2023-03-31T05:37:23;14.75;;;5.75;;
47531;SDS011;33273;52.254;7.988;2023-03-31T05:39:50;10.60;;;5.30;;
47531;SDS011;33273;52.254;7.988;2023-03-31T05:42:16;9.40;;;5.45;;
47531;SDS011;33273;52.254;7.988;2023-03-31T05:44:42;12.60;;;6.78;;
47531;SDS011;33273;52.254;7.988;2023-03-31T05:47:08;9.20;;;5.97;;
47531;SDS011;33273;52.254;7.988;2023-03-31T05:49:34;9.93;;;6.40;;
47531;SDS011;33273;52.254;7.988;2023-03-31T05:52:00;12.00;;;6.18;;
47531;SDS011;33273;52.254;7.988;2023-03-31T05:54:26;9.97;;;6.63;;
47531;SDS011;33273;52.254;7.988;2023-03-31T05:56:53;12.48;;;6.03;;
47531;SDS011;33273;52.254;7.988;2023-03-31T05:59:20;13.02;;;6.15;;
47531;SDS011;33273;52.254;7.988;2023-03-31T06:01:48;13.25;;;6.35;;
47531;SDS011;33273;52.254;7.988;2023-03-31T06:04:13;11.47;;;5.47;;
47531;SDS011;33273;52.254;7.988;2023-03-31T06:06:42;11.07;;;4.93;;
47531;SDS011;33273;52.254;7.988;2023-03-31T06:09:10;7.97;;;4.95;;
47531;SDS011;33273;52.254;7.988;2023-03-31T06:11:37;10.30;;;4.73;;
47531;SDS011;33273;52.254;7.988;2023-03-31T06:14:03;12.30;;;4.55;;
47531;SDS011;33273;52.254;7.988;2023-03-31T06:18:55;9.02;;;3.45;;
47531;SDS011;33273;52.254;7.988;2023-03-31T06:21:21;8.43;;;3.72;;
47531;SDS011;33273;52.254;7.988;2023-03-31T06:23:47;15.00;;;5.80;;
47531;SDS011;33273;52.254;7.988;2023-03-31T06:26:15;8.88;;;4.40;;
47531;SDS011;33273;52.254;7.988;2023-03-31T06:28:42;12.38;;;5.47;;
47531;SDS011;33273;52.254;7.988;2023-03-31T06:31:13;12.65;;;4.38;;
47531;SDS011;33273;52.254;7.988;2023-03-31T06:33:41;10.95;;;4.88;;
47531;SDS011;33273;52.254;7.988;2023-03-31T06:36:09;13.20;;;5.82;;
47531;SDS011;33273;52.254;7.988;2023-03-31T06:38:38;9.90;;;4.82;;
47531;SDS011;33273;52.254;7.988;2023-03-31T06:41:06;11.02;;;5.43;;
47531;SDS011;33273;52.254;7.988;2023-03-31T06:43:32;11.30;;;5.13;;
47531;SDS011;33273;52.254;7.988;2023-03-31T06:46:03;9.98;;;5.32;;
47531;SDS011;33273;52.254;7.988;2023-03-31T06:48:32;8.82;;;4.35;;
47531;SDS011;33273;52.254;7.988;2023-03-31T06:50:59;8.95;;;4.20;;
47531;SDS011;33273;52.254;7.988;2023-03-31T06:53:27;9.13;;;4.40;;
47531;SDS011;33273;52.254;7.988;2023-03-31T06:55:53;12.20;;;3.88;;
47531;SDS011;33273;52.254;7.988;2023-03-31T06:58:19;10.33;;;3.00;;
47531;SDS011;33273;52.254;7.988;2023-03-31T07:00:45;6.50;;;3.10;;
47531;SDS011;33273;52.254;7.988;2023-03-31T07:03:12;9.23;;;3.92;;
47531;SDS011;33273;52.254;7.988;2023-03-31T07:05:39;7.90;;;3.45;;
47531;SDS011;33273;52.254;7.988;2023-03-31T07:08:05;7.07;;;2.83;;
47531;SDS011;33273;52.254;7.988;2023-03-31T07:10:32;10.85;;;3.28;;
47531;SDS011;33273;52.254;7.988;2023-03-31T07:12:58;9.13;;;3.55;;
47531;SDS011;33273;52.254;7.988;2023-03-31T07:15:24;7.80;;;3.05;;
47531;SDS011;33273;52.254;7.988;2023-03-31T07:17:54;8.45;;;3.38;;
47531;SDS011;33273;52.254;7.988;2023-03-31T07:20:27;10.57;;;2.72;;
47531;SDS011;33273;52.254;7.988;2023-03-31T07:22:54;9.40;;;3.00;;
47531;SDS011;33273;52.254;7.988;2023-03-31T07:25:20;6.20;;;2.70;;
47531;SDS011;33273;52.254;7.988;2023-03-31T07:27:46;5.32;;;2.40;;
47531;SDS011;33273;52.254;7.988;2023-03-31T07:30:18;9.10;;;3.03;;
47531;SDS011;33273;52.254;7.988;2023-03-31T07:32:50;8.05;;;2.40;;
47531;SDS011;33273;52.254;7.988;2023-03-31T07:35:17;5.65;;;2.33;;
47531;SDS011;33273;52.254;7.988;2023-03-31T07:37:46;6.45;;;2.38;;
47531;SDS011;33273;52.254;7.988;2023-03-31T07:40:20;6.93;;;2.30;;
47531;SDS011;33273;52.254;7.988;2023-03-31T07:42:48;10.27;;;2.40;;
47531;SDS011;33273;52.254;7.988;2023-03-31T07:45:16;12.80;;;3.22;;
47531;SDS011;33273;52.254;7.988;2023-03-31T07:47:43;8.38;;;2.13;;
47531;SDS011;33273;52.254;7.988;2023-03-31T07:50:12;5.05;;;2.47;;
47531;SDS011;33273;52.254;7.988;2023-03-31T07:52:39;6.50;;;2.42;;
47531;SDS011;33273;52.254;7.988;2023-03-31T07:55:05;5.60;;;2.27;;
47531;SDS011;33273;52.254;7.988;2023-03-31T07:57:33;7.18;;;1.90;;
47531;SDS011;33273;52.254;7.988;2023-03-31T08:00:00;5.40;;;2.30;;
47531;SDS011;33273;52.254;7.988;2023-03-31T08:02:39;6.10;;;2.00;;
47531;SDS011;33273;52.254;7.988;2023-03-31T08:05:07;7.03;;;2.15;;
47531;SDS011;33273;52.254;7.988;2023-03-31T08:07:38;6.28;;;2.30;;
47531;SDS011;33273;52.254;7.988;2023-03-31T08:10:07;8.32;;;2.50;;
47531;SDS011;33273;52.254;7.988;2023-03-31T08:12:39;5.68;;;2.47;;
47531;SDS011;33273;52.254;7.988;2023-03-31T08:15:05;5.43;;;2.28;;
47531;SDS011;33273;52.254;7.988;2023-03-31T08:19:57;6.32;;;2.00;;
47531;SDS011;33273;52.254;7.988;2023-03-31T08:22:24;6.18;;;2.10;;
47531;SDS011;33273;52.254;7.988;2023-03-31T08:24:50;5.03;;;2.38;;
47531;SDS011;33273;52.254;7.988;2023-03-31T08:27:16;4.47;;;2.15;;
47531;SDS011;33273;52.254;7.988;2023-03-31T08:29:42;7.03;;;1.90;;
47531;SDS011;33273;52.254;7.988;2023-03-31T08:32:08;4.50;;;1.80;;
47531;SDS011;33273;52.254;7.988;2023-03-31T08:34:34;6.43;;;1.87;;
47531;SDS011;33273;52.254;7.988;2023-03-31T08:37:00;4.68;;;1.92;;
47531;SDS011;33273;52.254;7.988;2023-03-31T08:39:26;4.20;;;1.90;;
47531;SDS011;33273;52.254;7.988;2023-03-31T08:41:57;5.28;;;2.25;;
47531;SDS011;33273;52.254;7.988;2023-03-31T08:44:31;4.05;;;1.98;;
47531;SDS011;33273;52.254;7.988;2023-03-31T08:46:59;4.57;;;2.03;;
47531;SDS011;33273;52.254;7.988;2023-03-31T08:49:27;4.78;;;2.20;;
47531;SDS011;33273;52.254;7.988;2023-03-31T08:52:03;3.25;;;2.35;;
47531;SDS011;33273;52.254;7.988;2023-03-31T08:54:33;7.18;;;2.97;;
47531;SDS011;33273;52.254;7.988;2023-03-31T08:57:27;3.55;;;2.50;;
47531;SDS011;33273;52.254;7.988;2023-03-31T09:00:09;4.28;;;2.60;;
47531;SDS011;33273;52.254;7.988;2023-03-31T09:19:15;6.38;;;2.63;;
47531;SDS011;33273;52.254;7.988;2023-03-31T09:21:50;5.35;;;2.72;;
47531;SDS011;33273;52.254;7.988;2023-03-31T09:24:20;5.38;;;2.72;;
47531;SDS011;33273;52.254;7.988;2023-03-31T09:26:52;4.15;;;2.78;;
47531;SDS011;33273;52.254;7.988;2023-03-31T09:29:33;9.57;;;2.90;;
47531;SDS011;33273;52.254;7.988;2023-03-31T09:32:18;3.95;;;2.70;;
47531;SDS011;33273;52.254;7.988;2023-03-31T09:35:00;6.63;;;2.63;;
47531;SDS011;33273;52.254;7.988;2023-03-31T09:37:38;4.88;;;2.88;;
47531;SDS011;33273;52.254;7.988;2023-03-31T09:40:04;7.70;;;3.10;;
47531;SDS011;33273;52.254;7.988;2023-03-31T09:42:36;4.05;;;1.30;;
47531;SDS011;33273;52.254;7.988;2023-03-31T09:47:34;3.10;;;1.35;;
47531;SDS011;33273;52.254;7.988;2023-03-31T09:50:07;2.95;;;1.60;;
47531;SDS011;33273;52.254;7.988;2023-03-31T09:52:37;5.45;;;1.33;;
47531;SDS011;33273;52.254;7.988;2023-03-31T09:57:48;3.10;;;1.38;;
47531;SDS011;33273;52.254;7.988;2023-03-31T10:00:15;1.38;;;1.00;;
47531;SDS011;33273;52.254;7.988;2023-03-31T10:08:19;1.88;;;1.20;;
47531;SDS011;33273;52.254;7.988;2023-03-31T10:11:05;2.28;;;1.08;;
47531;SDS011;33273;52.254;7.988;2023-03-31T10:16:09;4.90;;;1.50;;
47531;SDS011;33273;52.254;7.988;2023-03-31T10:18:39;3.05;;;1.20;;
47531;SDS011;33273;52.254;7.988;2023-03-31T10:21:20;2.10;;;1.30;;
47531;SDS011;33273;52.254;7.988;2023-03-31T10:23:57;2.97;;;1.17;;
47531;SDS011;33273;52.254;7.988;2023-03-31T10:26:27;3.92;;;1.92;;
47531;SDS011;33273;52.254;7.988;2023-03-31T10:28:54;5.70;;;2.00;;
47531;SDS011;33273;52.254;7.988;2023-03-31T10:31:33;4.18;;;1.75;;
47531;SDS011;33273;52.254;7.988;2023-03-31T10:34:08;6.10;;;2.40;;
47531;SDS011;33273;52.254;7.988;2023-03-31T10:36:49;5.45;;;2.15;;
47531;SDS011;33273;52.254;7.988;2023-03-31T10:39:16;3.40;;;1.90;;
47531;SDS011;33273;52.254;7.988;2023-03-31T10:41:50;4.68;;;1.85;;
47531;SDS011;33273;52.254;7.988;2023-03-31T10:44:34;4.63;;;2.13;;
47531;SDS011;33273;52.254;7.988;2023-03-31T10:47:38;7.95;;;2.10;;
47531;SDS011;33273;52.254;7.988;2023-03-31T10:50:13;6.18;;;2.05;;
47531;SDS011;33273;52.254;7.988;2023-03-31T10:52:43;5.85;;;1.83;;
47531;SDS011;33273;52.254;7.988;2023-03-31T10:55:12;5.78;;;1.90;;
47531;SDS011;33273;52.254;7.988;2023-03-31T11:00:26;6.35;;;2.15;;
47531;SDS011;33273;52.254;7.988;2023-03-31T11:06:21;5.43;;;2.40;;
47531;SDS011;33273;52.254;7.988;2023-03-31T11:17:53;4.95;;;1.98;;
47531;SDS011;33273;52.254;7.988;2023-03-31T11:34:43;6.43;;;2.80;;
47531;SDS011;33273;52.254;7.988;2023-03-31T11:45:58;9.63;;;2.85;;
47531;SDS011;33273;52.254;7.988;2023-03-31T11:48:47;6.93;;;2.45;;
47531;SDS011;33273;52.254;7.988;2023-03-31T11:54:33;7.07;;;3.47;;
47531;SDS011;33273;52.254;7.988;2023-03-31T11:57:08;14.93;;;3.95;;
47531;SDS011;33273;52.254;7.988;2023-03-31T11:59:39;10.35;;;3.97;;
47531;SDS011;33273;52.254;7.988;2023-03-31T12:05:05;6.72;;;3.25;;
47531;SDS011;33273;52.254;7.988;2023-03-31T12:07:35;12.00;;;6.18;;
47531;SDS011;33273;52.254;7.988;2023-03-31T12:12:55;7.05;;;3.72;;
47531;SDS011;33273;52.254;7.988;2023-03-31T12:18:00;8.65;;;4.55;;
47531;SDS011;33273;52.254;7.988;2023-03-31T12:20:36;8.83;;;4.63;;
47531;SDS011;33273;52.254;7.988;2023-03-31T12:23:14;8.75;;;5.82;;
47531;SDS011;33273;52.254;7.988;2023-03-31T12:25:49;8.98;;;4.90;;
47531;SDS011;33273;52.254;7.988;2023-03-31T12:28:21;9.13;;;4.25;;
47531;SDS011;33273;52.254;7.988;2023-03-31T12:30:54;9.95;;;3.95;;
47531;SDS011;33273;52.254;7.988;2023-03-31T12:41:27;7.15;;;3.45;;
47531;SDS011;33273;52.254;7.988;2023-03-31T12:53:17;6.75;;;3.50;;
47531;SDS011;33273;52.254;7.988;2023-03-31T13:09:01;7.68;;;3.05;;
47531;SDS011;33273;52.254;7.988;2023-03-31T13:14:06;9.93;;;3.50;;
47531;SDS011;33273;52.254;7.988;2023-03-31T13:16:43;7.38;;;2.88;;
47531;SDS011;33273;52.254;7.988;2023-03-31T13:19:12;6.82;;;2.70;;
47531;SDS011;33273;52.254;7.988;2023-03-31T13:22:02;5.50;;;2.30;;
47531;SDS011;33273;52.254;7.988;2023-03-31T13:24:31;7.35;;;2.80;;
47531;SDS011;33273;52.254;7.988;2023-03-31T13:29:55;7.00;;;2.58;;
47531;SDS011;33273;52.254;7.988;2023-03-31T13:32:26;5.57;;;2.63;;
47531;SDS011;33273;52.254;7.988;2023-03-31T13:49:23;6.47;;;2.58;;
47531;SDS011;33273;52.254;7.988;2023-03-31T13:52:34;8.35;;;2.72;;
47531;SDS011;33273;52.254;7.988;2023-03-31T13:55:27;6.93;;;2.38;;
47531;SDS011;33273;52.254;7.988;2023-03-31T14:07:00;5.90;;;2.38;;
47531;SDS011;33273;52.254;7.988;2023-03-31T14:09:41;5.20;;;1.77;;
47531;SDS011;33273;52.254;7.988;2023-03-31T14:15:03;11.88;;;2.92;;
47531;SDS011;33273;52.254;7.988;2023-03-31T14:17:33;5.13;;;2.55;;
47531;SDS011;33273;52.254;7.988;2023-03-31T14:22:58;6.38;;;1.75;;
47531;SDS011;33273;52.254;7.988;2023-03-31T14:25:53;7.47;;;2.15;;
47531;SDS011;33273;52.254;7.988;2023-03-31T14:37:02;9.48;;;2.22;;
47531;SDS011;33273;52.254;7.988;2023-03-31T14:39:36;6.65;;;2.85;;
47531;SDS011;33273;52.254;7.988;2023-03-31T14:42:11;6.93;;;2.22;;
47531;SDS011;33273;52.254;7.988;2023-03-31T14:45:02;7.45;;;2.40;;
47531;SDS011;33273;52.254;7.988;2023-03-31T14:47:30;10.48;;;2.50;;
47531;SDS011;33273;52.254;7.988;2023-03-31T14:50:15;6.18;;;1.92;;
47531;SDS011;33273;52.254;7.988;2023-03-31T14:52:46;7.38;;;2.55;;
47531;SDS011;33273;52.254;7.988;2023-03-31T14:55:14;12.15;;;2.17;;
47531;SDS011;33273;52.254;7.988;2023-03-31T14:57:41;9.30;;;2.25;;
47531;SDS011;33273;52.254;7.988;2023-03-31T15:00:11;7.43;;;2.75;;
47531;SDS011;33273;52.254;7.988;2023-03-31T15:03:01;9.25;;;1.90;;
47531;SDS011;33273;52.254;7.988;2023-03-31T15:05:34;6.15;;;2.05;;
47531;SDS011;33273;52.254;7.988;2023-03-31T15:08:02;9.18;;;2.00;;
47531;SDS011;33273;52.254;7.988;2023-03-31T15:10:40;9.85;;;2.28;;
47531;SDS011;33273;52.254;7.988;2023-03-31T15:13:11;8.70;;;2.38;;
47531;SDS011;33273;52.254;7.988;2023-03-31T15:15:43;8.60;;;1.92;;
47531;SDS011;33273;52.254;7.988;2023-03-31T15:18:12;6.18;;;1.65;;
47531;SDS011;33273;52.254;7.988;2023-03-31T15:20:41;7.28;;;1.85;;
47531;SDS011;33273;52.254;7.988;2023-03-31T15:23:26;8.00;;;2.17;;
47531;SDS011;33273;52.254;7.988;2023-03-31T15:26:03;4.63;;;1.90;;
47531;SDS011;33273;52.254;7.988;2023-03-31T15:28:48;6.07;;;1.83;;
47531;SDS011;33273;52.254;7.988;2023-03-31T15:31:19;8.82;;;2.30;;
47531;SDS011;33273;52.254;7.988;2023-03-31T15:33:45;6.88;;;1.90;;
47531;SDS011;33273;52.254;7.988;2023-03-31T15:36:12;8.73;;;2.75;;
47531;SDS011;33273;52.254;7.988;2023-03-31T15:38:40;5.68;;;2.28;;
47531;SDS011;33273;52.254;7.988;2023-03-31T15:41:11;6.10;;;2.00;;
47531;SDS011;33273;52.254;7.988;2023-03-31T15:46:23;6.60;;;2.20;;
47531;SDS011;33273;52.254;7.988;2023-03-31T15:49:19;5.03;;;1.90;;
47531;SDS011;33273;52.254;7.988;2023-03-31T15:51:47;8.60;;;2.13;;
47531;SDS011;33273;52.254;7.988;2023-03-31T15:54:27;9.07;;;2.15;;
47531;SDS011;33273;52.254;7.988;2023-03-31T15:56:58;7.10;;;1.90;;
47531;SDS011;33273;52.254;7.988;2023-03-31T15:59:28;7.53;;;1.83;;
47531;SDS011;33273;52.254;7.988;2023-03-31T16:02:21;8.00;;;2.42;;
47531;SDS011;33273;52.254;7.988;2023-03-31T16:04:53;8.18;;;3.50;;
47531;SDS011;33273;52.254;7.988;2023-03-31T16:07:27;9.02;;;3.55;;
47531;SDS011;33273;52.254;7.988;2023-03-31T16:10:18;11.82;;;2.75;;
47531;SDS011;33273;52.254;7.988;2023-03-31T16:12:48;12.45;;;3.97;;
47531;SDS011;33273;52.254;7.988;2023-03-31T16:15:28;9.75;;;5.15;;
47531;SDS011;33273;52.254;7.988;2023-03-31T16:18:09;10.02;;;4.00;;
47531;SDS011;33273;52.254;7.988;2023-03-31T16:20:40;16.92;;;7.93;;
47531;SDS011;33273;52.254;7.988;2023-03-31T16:23:20;19.08;;;7.45;;
47531;SDS011;33273;52.254;7.988;2023-03-31T16:25:53;13.20;;;3.92;;
47531;SDS011;33273;52.254;7.988;2023-03-31T16:28:38;9.82;;;2.92;;
47531;SDS011;33273;52.254;7.988;2023-03-31T16:31:05;12.30;;;6.03;;
47531;SDS011;33273;52.254;7.988;2023-03-31T16:34:04;19.38;;;6.03;;
47531;SDS011;33273;52.254;7.988;2023-03-31T16:36:33;19.90;;;9.45;;
47531;SDS011;33273;52.254;7.988;2023-03-31T16:39:00;19.13;;;6.78;;
47531;SDS011;33273;52.254;7.988;2023-03-31T16:41:33;13.25;;;3.38;;
47531;SDS011;33273;52.254;7.988;2023-03-31T16:44:01;10.18;;;3.88;;
47531;SDS011;33273;52.254;7.988;2023-03-31T16:46:28;6.63;;;3.25;;
47531;SDS011;33273;52.254;7.988;2023-03-31T16:48:54;8.23;;;3.10;;
47531;SDS011;33273;52.254;7.988;2023-03-31T16:51:20;11.68;;;3.33;;
47531;SDS011;33273;52.254;7.988;2023-03-31T16:53:46;8.73;;;2.95;;
47531;SDS011;33273;52.254;7.988;2023-03-31T16:56:13;12.82;;;4.82;;
47531;SDS011;33273;52.254;7.988;2023-03-31T16:58:40;10.07;;;5.30;;
47531;SDS011;33273;52.254;7.988;2023-03-31T17:01:12;8.20;;;3.95;;
47531;SDS011;33273;52.254;7.988;2023-03-31T17:03:38;9.40;;;4.20;;
47531;SDS011;33273;52.254;7.988;2023-03-31T17:06:17;19.02;;;8.43;;
47531;SDS011;33273;52.254;7.988;2023-03-31T17:08:49;11.73;;;5.55;;
47531;SDS011;33273;52.254;7.988;2023-03-31T17:11:16;12.07;;;5.70;;
47531;SDS011;33273;52.254;7.988;2023-03-31T17:13:43;11.00;;;5.55;;
47531;SDS011;33273;52.254;7.988;2023-03-31T17:16:10;13.52;;;5.90;;
47531;SDS011;33273;52.254;7.988;2023-03-31T17:18:38;11.25;;;4.90;;
47531;SDS011;33273;52.254;7.988;2023-03-31T17:21:05;10.10;;;4.70;;
47531;SDS011;33273;52.254;7.988;2023-03-31T17:23:33;15.98;;;6.68;;
47531;SDS011;33273;52.254;7.988;2023-03-31T17:26:00;8.15;;;4.32;;
47531;SDS011;33273;52.254;7.988;2023-03-31T17:28:26;15.75;;;6.55;;
47531;SDS011;33273;52.254;7.988;2023-03-31T17:30:53;14.13;;;4.18;;
47531;SDS011;33273;52.254;7.988;2023-03-31T17:33:20;8.35;;;3.13;;
47531;SDS011;33273;52.254;7.988;2023-03-31T17:35:46;10.43;;;3.20;;
47531;SDS011;33273;52.254;7.988;2023-03-31T17:38:15;7.97;;;2.80;;
47531;SDS011;33273;52.254;7.988;2023-03-31T17:40:43;8.95;;;3.00;;
47531;SDS011;33273;52.254;7.988;2023-03-31T17:43:13;12.27;;;5.47;;
47531;SDS011;33273;52.254;7.988;2023-03-31T17:45:40;18.02;;;7.18;;
47531;SDS011;33273;52.254;7.988;2023-03-31T17:48:06;16.20;;;7.10;;
47531;SDS011;33273;52.254;7.988;2023-03-31T17:50:34;11.02;;;4.85;;
47531;SDS011;33273;52.254;7.988;2023-03-31T17:53:02;16.08;;;8.02;;
47531;SDS011;33273;52.254;7.988;2023-03-31T17:55:35;12.13;;;5.72;;
47531;SDS011;33273;52.254;7.988;2023-03-31T17:58:02;20.40;;;10.00;;
47531;SDS011;33273;52.254;7.988;2023-03-31T18:00:32;13.35;;;6.95;;
47531;SDS011;33273;52.254;7.988;2023-03-31T18:03:01;13.95;;;7.45;;
47531;SDS011;33273;52.254;7.988;2023-03-31T18:05:27;17.90;;;8.27;;
47531;SDS011;33273;52.254;7.988;2023-03-31T18:07:57;24.52;;;11.20;;
47531;SDS011;33273;52.254;7.988;2023-03-31T18:12:53;23.17;;;10.25;;
47531;SDS011;33273;52.254;7.988;2023-03-31T18:15:19;19.48;;;10.10;;
47531;SDS011;33273;52.254;7.988;2023-03-31T18:17:48;21.17;;;9.88;;
47531;SDS011;33273;52.254;7.988;2023-03-31T18:20:17;8.45;;;4.43;;
47531;SDS011;33273;52.254;7.988;2023-03-31T18:22:45;7.85;;;3.45;;
47531;SDS011;33273;52.254;7.988;2023-03-31T18:25:12;11.13;;;5.35;;
47531;SDS011;33273;52.254;7.988;2023-03-31T18:27:39;8.20;;;3.55;;
47531;SDS011;33273;52.254;7.988;2023-03-31T18:30:06;13.48;;;6.45;;
47531;SDS011;33273;52.254;7.988;2023-03-31T18:34:58;21.15;;;10.55;;
47531;SDS011;33273;52.254;7.988;2023-03-31T18:37:25;22.10;;;10.40;;
47531;SDS011;33273;52.254;7.988;2023-03-31T18:39:54;14.25;;;5.72;;
47531;SDS011;33273;52.254;7.988;2023-03-31T18:42:23;14.27;;;5.75;;
47531;SDS011;33273;52.254;7.988;2023-03-31T18:47:21;5.15;;;2.40;;
47531;SDS011;33273;52.254;7.988;2023-03-31T18:49:48;4.95;;;2.10;;